createdAt,value
2022-10-18T00:01:02.452Z,20.71
2022-10-18T00:03:28.842Z,20.69
2022-10-18T00:05:55.217Z,20.65
2022-10-18T00:08:21.570Z,20.57
2022-10-18T00:10:47.942Z,20.63
2022-10-18T00:13:14.295Z,20.60
2022-10-18T00:15:40.640Z,20.43
2022-10-18T00:18:06.991Z,20.51
2022-10-18T00:20:33.418Z,20.62
2022-10-18T00:22:59.762Z,20.55
2022-10-18T00:25:26.100Z,20.48
2022-10-18T00:27:52.445Z,20.50
2022-10-18T00:30:18.808Z,20.37
2022-10-18T00:32:45.158Z,20.43
2022-10-18T00:35:11.496Z,20.51
2022-10-18T00:37:37.849Z,20.18
2022-10-18T00:40:04.213Z,19.96
2022-10-18T00:42:30.740Z,19.74
2022-10-18T00:44:57.579Z,19.67
2022-10-18T00:47:23.983Z,19.57
2022-10-18T00:49:50.336Z,19.79
2022-10-18T00:52:16.694Z,19.78
2022-10-18T00:54:43.060Z,19.88
2022-10-18T00:57:09.418Z,19.82
2022-10-18T00:59:35.782Z,19.52
2022-10-18T01:02:02.195Z,19.80
2022-10-18T01:04:28.588Z,19.79
2022-10-18T01:06:54.942Z,19.73
2022-10-18T01:09:21.293Z,19.69
2022-10-18T01:11:47.662Z,19.82
2022-10-18T01:14:14.073Z,19.78
2022-10-18T01:16:40.445Z,19.51
2022-10-18T01:19:06.805Z,19.42
2022-10-18T01:21:33.190Z,19.45
2022-10-18T01:23:59.541Z,19.41
2022-10-18T01:26:25.892Z,19.34
2022-10-18T01:28:52.304Z,19.39
2022-10-18T01:31:18.712Z,19.47
2022-10-18T01:33:45.086Z,19.59
2022-10-18T01:36:11.435Z,19.74
2022-10-18T01:38:37.783Z,19.56
2022-10-18T01:41:04.139Z,19.38
2022-10-18T01:43:30.500Z,19.49
2022-10-18T01:45:56.835Z,19.44
2022-10-18T01:48:23.203Z,19.51
2022-10-18T01:50:49.557Z,19.69
2022-10-18T01:53:15.927Z,19.65
2022-10-18T01:55:42.281Z,19.58
2022-10-18T01:58:08.640Z,19.66
2022-10-18T02:00:34.977Z,19.41
2022-10-18T02:03:01.347Z,19.43
2022-10-18T02:05:27.685Z,19.39
2022-10-18T02:08:05.636Z,19.46
2022-10-18T02:10:40.356Z,19.42
2022-10-18T02:13:06.712Z,19.64
2022-10-18T02:15:33.070Z,19.66
2022-10-18T02:17:59.408Z,19.62
2022-10-18T02:20:25.778Z,19.51
2022-10-18T02:22:52.130Z,19.61
2022-10-18T02:25:18.479Z,19.45
2022-10-18T02:27:44.822Z,19.40
2022-10-18T02:30:11.168Z,19.28
2022-10-18T02:32:37.534Z,19.15
2022-10-18T02:35:03.885Z,19.10
2022-10-18T02:37:30.262Z,19.01
2022-10-18T02:39:56.654Z,19.03
2022-10-18T02:42:23.010Z,18.98
2022-10-18T02:44:49.384Z,18.91
2022-10-18T02:47:15.733Z,19.20
2022-10-18T02:49:42.101Z,19.06
2022-10-18T02:52:08.478Z,18.90
2022-10-18T02:54:34.832Z,18.60
2022-10-18T02:57:01.219Z,18.72
2022-10-18T02:59:27.562Z,18.65
2022-10-18T03:01:54.046Z,18.55
2022-10-18T03:04:20.434Z,18.65
2022-10-18T03:06:46.821Z,18.60
2022-10-18T03:09:13.162Z,18.58
2022-10-18T03:11:39.533Z,18.66
2022-10-18T03:14:05.883Z,18.78
2022-10-18T03:16:32.238Z,18.82
2022-10-18T03:18:58.601Z,18.74
2022-10-18T03:21:24.957Z,18.85
2022-10-18T03:23:51.314Z,18.78
2022-10-18T03:26:17.675Z,18.81
2022-10-18T03:28:44.083Z,18.89
2022-10-18T03:31:10.535Z,18.91
2022-10-18T03:33:36.887Z,18.76
2022-10-18T03:36:03.252Z,18.63
2022-10-18T03:38:29.603Z,18.66
2022-10-18T03:40:55.960Z,18.67
2022-10-18T03:43:22.363Z,18.71
2022-10-18T03:45:48.713Z,18.74
2022-10-18T03:48:15.075Z,18.89
2022-10-18T03:50:41.491Z,18.76
2022-10-18T03:53:07.845Z,18.72
2022-10-18T03:55:34.204Z,18.75
2022-10-18T03:58:00.572Z,18.85
2022-10-18T04:00:26.942Z,18.78
2022-10-18T04:02:55.136Z,18.92
2022-10-18T04:05:22.401Z,18.89
2022-10-18T04:07:48.771Z,18.81
2022-10-18T04:10:15.132Z,18.78
2022-10-18T04:12:41.487Z,18.86
2022-10-18T04:15:07.851Z,18.77
2022-10-18T04:17:34.493Z,18.74
2022-10-18T04:20:01.160Z,18.68
2022-10-18T04:22:27.533Z,18.59
2022-10-18T04:24:53.885Z,18.69
2022-10-18T04:27:20.264Z,18.70
2022-10-18T04:29:46.623Z,18.80
2022-10-18T04:32:13.035Z,18.66
2022-10-18T04:34:39.411Z,18.76
2022-10-18T04:37:05.795Z,18.62
2022-10-18T04:39:32.158Z,18.53
2022-10-18T04:41:58.499Z,18.31
2022-10-18T04:44:24.861Z,18.43
2022-10-18T04:46:51.213Z,18.49
2022-10-18T04:49:17.601Z,18.58
2022-10-18T04:51:43.962Z,18.61
2022-10-18T04:54:10.314Z,18.57
2022-10-18T04:56:36.663Z,18.62
2022-10-18T04:59:03.017Z,18.66
2022-10-18T05:01:29.390Z,18.79
2022-10-18T05:03:55.789Z,18.54
2022-10-18T05:06:22.155Z,18.49
2022-10-18T05:08:48.492Z,18.43
2022-10-18T05:11:14.899Z,18.19
2022-10-18T05:13:41.242Z,18.32
2022-10-18T05:16:07.701Z,18.20
2022-10-18T05:18:34.182Z,18.21
2022-10-18T05:21:00.519Z,18.28
2022-10-18T05:23:26.895Z,18.44
2022-10-18T05:25:53.256Z,18.45
2022-10-18T05:28:39.576Z,18.63
2022-10-18T05:31:06.009Z,18.78
2022-10-18T05:33:32.379Z,18.78
2022-10-18T05:35:58.748Z,18.66
2022-10-18T05:38:25.145Z,18.87
2022-10-18T05:40:51.543Z,18.80
2022-10-18T05:43:17.889Z,18.77
2022-10-18T05:45:44.267Z,18.73
2022-10-18T05:48:10.621Z,18.87
2022-10-18T05:50:39.608Z,18.79
2022-10-18T05:53:12.759Z,18.98
2022-10-18T05:55:51.019Z,18.79
2022-10-18T05:58:17.370Z,18.80
2022-10-18T06:00:43.721Z,18.76
2022-10-18T06:03:10.105Z,18.84
2022-10-18T06:05:36.529Z,18.90
2022-10-18T06:08:05.270Z,18.91
2022-10-18T06:10:34.320Z,18.91
2022-10-18T06:13:00.673Z,18.84
2022-10-18T06:15:27.014Z,18.74
2022-10-18T06:17:53.367Z,18.74
2022-10-18T06:20:19.731Z,18.75
2022-10-18T06:22:46.085Z,18.79
2022-10-18T06:25:12.432Z,18.61
2022-10-18T06:27:38.771Z,18.91
2022-10-18T06:30:05.182Z,18.98
2022-10-18T06:32:31.529Z,18.97
2022-10-18T06:34:57.877Z,18.63
2022-10-18T06:37:24.238Z,18.51
2022-10-18T06:39:50.609Z,18.42
2022-10-18T06:42:19.131Z,18.53
2022-10-18T06:44:48.209Z,18.70
2022-10-18T06:47:14.560Z,19.05
2022-10-18T06:49:40.917Z,19.09
2022-10-18T06:52:07.301Z,19.21
2022-10-18T06:54:33.649Z,19.26
2022-10-18T06:56:59.996Z,19.33
2022-10-18T06:59:28.900Z,19.33
2022-10-18T07:01:57.591Z,19.38
2022-10-18T07:04:23.983Z,19.46
2022-10-18T07:06:50.335Z,19.51
2022-10-18T07:09:16.697Z,19.49
2022-10-18T07:11:43.071Z,19.51
2022-10-18T07:14:12.555Z,19.62
2022-10-18T07:16:41.769Z,19.73
2022-10-18T07:19:08.167Z,19.37
2022-10-18T07:21:34.512Z,19.27
2022-10-18T07:24:00.891Z,19.29
2022-10-18T07:26:27.289Z,18.92
2022-10-18T07:28:53.739Z,18.90
2022-10-18T07:31:20.157Z,19.03
2022-10-18T07:33:46.552Z,18.71
2022-10-18T07:36:12.919Z,18.63
2022-10-18T07:38:39.261Z,18.90
2022-10-18T07:41:05.621Z,18.71
2022-10-18T07:43:31.970Z,18.60
2022-10-18T07:45:58.323Z,18.60
2022-10-18T07:48:24.675Z,18.28
2022-10-18T07:50:51.035Z,18.25
2022-10-18T07:53:17.391Z,18.17
2022-10-18T07:55:43.765Z,18.33
2022-10-18T07:58:10.148Z,18.50
2022-10-18T08:00:36.527Z,18.67
2022-10-18T08:03:02.889Z,18.90
2022-10-18T08:05:29.278Z,19.09
2022-10-18T08:07:55.656Z,18.97
2022-10-18T08:10:21.995Z,18.67
2022-10-18T08:12:48.368Z,18.57
2022-10-18T08:15:14.718Z,18.44
2022-10-18T08:17:41.079Z,18.55
2022-10-18T08:20:12.422Z,18.63
2022-10-18T08:22:45.498Z,18.59
2022-10-18T08:25:11.875Z,18.43
2022-10-18T08:27:38.278Z,18.70
2022-10-18T08:30:04.638Z,18.84
2022-10-18T08:32:31.302Z,19.09
2022-10-18T08:34:57.789Z,19.33
2022-10-18T08:37:24.153Z,19.31
2022-10-18T08:39:50.517Z,19.29
2022-10-18T08:42:16.860Z,19.43
2022-10-18T08:44:43.219Z,19.72
2022-10-18T08:47:09.577Z,19.65
2022-10-18T08:49:35.937Z,19.76
2022-10-18T08:52:02.269Z,20.14
2022-10-18T08:54:28.629Z,20.22
2022-10-18T08:56:54.968Z,19.95
2022-10-18T08:59:24.719Z,19.96
2022-10-18T09:01:52.019Z,19.87
2022-10-18T09:04:18.562Z,19.69
2022-10-18T09:06:44.958Z,19.90
2022-10-18T09:09:11.303Z,19.64
2022-10-18T09:11:37.682Z,20.06
2022-10-18T09:14:04.040Z,20.06
2022-10-18T09:16:30.408Z,20.32
2022-10-18T09:18:56.767Z,20.36
2022-10-18T09:21:23.137Z,20.67
2022-10-18T09:23:49.489Z,20.91
2022-10-18T09:26:15.840Z,21.13
2022-10-18T09:28:42.222Z,20.96
2022-10-18T09:31:08.575Z,21.37
2022-10-18T09:33:34.911Z,21.52
2022-10-18T09:36:01.274Z,21.31
2022-10-18T09:38:27.635Z,21.08
2022-10-18T09:40:53.993Z,20.90
2022-10-18T09:43:20.388Z,20.58
2022-10-18T09:45:46.728Z,20.41
2022-10-18T09:48:13.109Z,20.38
2022-10-18T09:50:39.452Z,20.56
2022-10-18T09:53:05.819Z,20.97
2022-10-18T09:55:32.156Z,21.28
2022-10-18T09:57:58.695Z,21.45
2022-10-18T10:00:25.079Z,21.77
2022-10-18T10:02:51.488Z,21.56
2022-10-18T10:05:17.891Z,21.23
2022-10-18T10:07:44.276Z,21.47
2022-10-18T10:10:10.650Z,21.47
2022-10-18T10:12:37.002Z,21.22
2022-10-18T10:15:03.365Z,21.68
2022-10-18T10:17:30.144Z,22.24
2022-10-18T10:19:56.842Z,21.81
2022-10-18T10:22:23.192Z,22.18
2022-10-18T10:24:49.553Z,21.37
2022-10-18T10:27:15.917Z,21.01
2022-10-18T10:29:44.884Z,20.71
2022-10-18T10:32:11.467Z,21.19
2022-10-18T10:34:40.961Z,21.34
2022-10-18T10:37:10.231Z,21.97
2022-10-18T10:39:36.576Z,21.59
2022-10-18T10:42:04.930Z,21.78
2022-10-18T10:44:33.219Z,21.89
2022-10-18T10:46:59.593Z,22.21
2022-10-18T10:49:41.510Z,22.88
2022-10-18T10:52:08.778Z,22.90
2022-10-18T10:54:35.528Z,22.98
2022-10-18T10:57:01.884Z,23.27
2022-10-18T10:59:28.298Z,23.49
2022-10-18T11:01:54.717Z,23.10
2022-10-18T11:04:21.142Z,22.34
2022-10-18T11:06:47.585Z,22.13
2022-10-18T11:09:13.945Z,21.78
2022-10-18T11:11:40.301Z,22.29
2022-10-18T11:14:24.643Z,22.07
2022-10-18T11:16:51.938Z,22.15
2022-10-18T11:19:18.365Z,22.96
2022-10-18T11:21:44.738Z,23.81
2022-10-18T11:24:11.089Z,24.36
2022-10-18T11:26:40.945Z,23.46
2022-10-18T11:29:09.149Z,22.91
2022-10-18T11:31:35.501Z,23.01
2022-10-18T11:34:09.251Z,23.31
2022-10-18T11:36:36.823Z,24.09
2022-10-18T11:39:03.319Z,24.53
2022-10-18T11:41:29.687Z,24.36
2022-10-18T11:44:03.813Z,23.81
2022-10-18T11:46:30.420Z,24.29
2022-10-18T11:48:56.766Z,24.61
2022-10-18T11:51:29.771Z,24.46
2022-10-18T11:54:05.128Z,24.52
2022-10-18T11:56:31.479Z,24.61
2022-10-18T11:58:57.872Z,24.55
2022-10-18T12:01:27.670Z,25.04
2022-10-18T12:03:55.020Z,24.73
2022-10-18T12:06:21.385Z,24.39
2022-10-18T12:08:47.741Z,24.62
2022-10-18T12:11:14.086Z,25.05
2022-10-18T12:13:40.451Z,25.29
2022-10-18T12:16:06.807Z,24.89
2022-10-18T12:18:33.177Z,24.07
2022-10-18T12:20:59.514Z,24.22
2022-10-18T12:23:25.914Z,24.30
2022-10-18T12:25:52.265Z,24.30
2022-10-18T12:28:18.615Z,24.29
2022-10-18T12:30:44.963Z,24.80
2022-10-18T12:33:27.115Z,25.20
2022-10-18T12:35:54.852Z,25.40
2022-10-18T12:38:21.215Z,25.19
2022-10-18T12:40:47.568Z,25.27
2022-10-18T12:43:13.926Z,24.94
2022-10-18T12:45:40.279Z,25.51
2022-10-18T12:48:06.637Z,25.11
2022-10-18T12:50:32.996Z,24.92
2022-10-18T12:52:59.336Z,24.95
2022-10-18T12:55:25.683Z,25.45
2022-10-18T12:57:52.026Z,25.22
2022-10-18T13:00:18.389Z,24.61
2022-10-18T13:02:44.747Z,24.50
2022-10-18T13:05:21.147Z,24.56
2022-10-18T13:07:57.478Z,24.76
2022-10-18T13:10:23.829Z,25.01
2022-10-18T13:12:50.179Z,25.46
2022-10-18T13:15:25.258Z,25.38
2022-10-18T13:17:53.384Z,25.72
2022-10-18T13:20:27.731Z,25.36
2022-10-18T13:22:54.293Z,26.13
2022-10-18T13:25:20.684Z,26.06
2022-10-18T13:27:47.359Z,25.69
2022-10-18T13:30:13.935Z,25.76
2022-10-18T13:32:40.295Z,25.88
2022-10-18T13:35:06.654Z,25.83
2022-10-18T13:37:33.008Z,25.92
2022-10-18T13:39:59.344Z,25.83
2022-10-18T13:42:25.696Z,27.01
2022-10-18T13:44:52.046Z,27.49
2022-10-18T13:47:18.408Z,26.07
2022-10-18T13:49:44.786Z,26.76
2022-10-18T13:52:11.141Z,27.08
2022-10-18T13:54:37.495Z,27.31
2022-10-18T13:57:03.855Z,27.00
2022-10-18T13:59:30.241Z,25.78
2022-10-18T14:01:56.672Z,25.78
2022-10-18T14:04:23.081Z,25.77
2022-10-18T14:06:49.432Z,26.01
2022-10-18T14:09:25.493Z,26.68
2022-10-18T14:12:02.126Z,26.60
2022-10-18T14:14:28.467Z,27.25
2022-10-18T14:16:54.834Z,27.44
2022-10-18T14:19:21.276Z,27.66
2022-10-18T14:21:47.629Z,28.21
2022-10-18T14:24:13.982Z,28.74
2022-10-18T14:26:40.354Z,28.87
2022-10-18T14:29:06.789Z,28.69
2022-10-18T14:31:33.296Z,28.85
2022-10-18T14:33:59.644Z,29.32
2022-10-18T14:36:26.009Z,29.27
2022-10-18T14:38:52.358Z,28.49
2022-10-18T14:41:18.698Z,28.61
2022-10-18T14:43:45.079Z,29.20
2022-10-18T14:46:11.436Z,29.68
2022-10-18T14:48:37.800Z,29.60
2022-10-18T14:51:04.158Z,29.41
2022-10-18T14:53:30.561Z,28.86
2022-10-18T14:55:56.924Z,29.33
2022-10-18T14:58:23.261Z,29.70
2022-10-18T15:00:49.623Z,29.78
2022-10-18T15:03:16.131Z,29.69
2022-10-18T15:05:42.488Z,29.97
2022-10-18T15:08:08.844Z,30.17
2022-10-18T15:10:35.221Z,30.19
2022-10-18T15:13:10.233Z,29.68
2022-10-18T15:15:37.137Z,29.58
2022-10-18T15:18:03.502Z,30.91
2022-10-18T15:20:29.866Z,30.93
2022-10-18T15:22:56.276Z,30.35
2022-10-18T15:25:22.619Z,30.35
2022-10-18T15:27:48.979Z,31.22
2022-10-18T15:30:15.340Z,31.54
2022-10-18T15:32:41.703Z,31.78
2022-10-18T15:35:08.054Z,31.65
2022-10-18T15:37:34.897Z,31.66
2022-10-18T15:40:01.617Z,31.78
2022-10-18T15:42:27.965Z,31.38
2022-10-18T15:44:54.582Z,31.49
2022-10-18T15:47:20.971Z,31.71
2022-10-18T15:49:47.355Z,32.24
2022-10-18T15:52:13.711Z,32.31
2022-10-18T15:54:40.154Z,32.25
2022-10-18T15:57:06.540Z,32.15
2022-10-18T15:59:32.909Z,31.92
2022-10-18T16:01:59.341Z,31.47
2022-10-18T16:04:25.723Z,31.05
2022-10-18T16:06:52.063Z,30.80
2022-10-18T16:09:18.414Z,30.35
2022-10-18T16:11:44.761Z,29.84
2022-10-18T16:14:11.125Z,29.72
2022-10-18T16:16:37.485Z,29.39
2022-10-18T16:19:03.838Z,29.47
2022-10-18T16:21:30.196Z,28.86
2022-10-18T16:23:56.546Z,28.51
2022-10-18T16:26:22.982Z,27.86
2022-10-18T16:28:49.404Z,27.37
2022-10-18T16:33:47.067Z,26.41
2022-10-18T16:36:13.427Z,25.99
2022-10-18T16:38:39.783Z,25.62
2022-10-18T16:41:06.137Z,25.44
2022-10-18T16:43:32.505Z,25.25
2022-10-18T16:45:58.865Z,25.07
2022-10-18T16:48:25.231Z,24.92
2022-10-18T16:50:51.583Z,24.86
2022-10-18T16:53:17.943Z,24.76
2022-10-18T16:55:44.301Z,24.61
2022-10-18T16:58:10.699Z,24.46
2022-10-18T17:00:37.099Z,24.43
2022-10-18T17:03:03.465Z,24.24
2022-10-18T17:05:29.813Z,24.16
2022-10-18T17:07:56.182Z,24.11
2022-10-18T17:10:22.553Z,24.05
2022-10-18T17:12:48.887Z,24.00
2022-10-18T17:15:15.222Z,23.85
2022-10-18T17:17:41.583Z,23.78
2022-10-18T17:20:07.968Z,23.76
2022-10-18T17:22:34.318Z,23.70
2022-10-18T17:25:00.675Z,23.56
2022-10-18T17:27:27.094Z,23.41
2022-10-18T17:29:53.439Z,23.36
2022-10-18T17:32:19.811Z,23.21
2022-10-18T17:34:46.192Z,23.26
2022-10-18T17:37:12.541Z,23.31
2022-10-18T17:39:38.921Z,23.27
2022-10-18T17:42:05.284Z,23.24
2022-10-18T17:44:31.653Z,23.19
2022-10-18T17:46:58.011Z,23.30
2022-10-18T17:49:24.370Z,23.21
2022-10-18T17:51:50.768Z,23.18
2022-10-18T17:54:17.150Z,23.03
2022-10-18T17:56:43.538Z,22.98
2022-10-18T17:59:09.910Z,23.00
2022-10-18T18:01:36.297Z,22.99
2022-10-18T18:04:02.682Z,22.92
2022-10-18T18:06:29.019Z,22.89
2022-10-18T18:08:55.373Z,22.88
2022-10-18T18:11:21.772Z,22.81
2022-10-18T18:13:48.131Z,22.81
2022-10-18T18:16:14.485Z,22.88
2022-10-18T18:18:40.859Z,22.82
2022-10-18T18:21:07.234Z,22.50
2022-10-18T18:23:33.593Z,22.49
2022-10-18T18:25:59.967Z,22.55
2022-10-18T18:28:26.335Z,22.52
2022-10-18T18:30:52.712Z,22.59
2022-10-18T18:33:19.077Z,22.51
2022-10-18T18:35:45.444Z,22.57
2022-10-18T18:38:11.936Z,22.53
2022-10-18T18:40:38.315Z,22.35
2022-10-18T18:43:12.550Z,22.37
2022-10-18T18:45:48.922Z,22.22
2022-10-18T18:48:18.993Z,22.25
2022-10-18T18:50:46.333Z,22.21
2022-10-18T18:53:12.697Z,22.41
2022-10-18T18:55:39.075Z,22.32
2022-10-18T18:58:05.430Z,22.27
2022-10-18T19:00:31.797Z,22.17
2022-10-18T19:02:58.162Z,22.14
2022-10-18T19:05:24.564Z,21.96
2022-10-18T19:07:50.948Z,22.03
2022-10-18T19:10:17.367Z,22.03
2022-10-18T19:12:43.730Z,21.99
2022-10-18T19:15:10.089Z,21.73
2022-10-18T19:17:36.496Z,21.78
2022-10-18T19:20:02.867Z,21.81
2022-10-18T19:22:29.234Z,21.82
2022-10-18T19:24:55.614Z,21.83
2022-10-18T19:27:21.989Z,21.76
2022-10-18T19:29:48.333Z,21.80
2022-10-18T19:32:14.742Z,21.76
2022-10-18T19:34:41.101Z,21.74
2022-10-18T19:37:07.467Z,21.75
2022-10-18T19:39:33.813Z,21.68
2022-10-18T19:42:00.174Z,21.72
2022-10-18T19:44:26.562Z,21.73
2022-10-18T19:46:52.973Z,21.56
2022-10-18T19:49:19.330Z,21.45
2022-10-18T19:51:45.722Z,21.52
2022-10-18T19:54:12.114Z,21.39
2022-10-18T19:56:38.488Z,21.38
2022-10-18T19:59:04.857Z,21.42
2022-10-18T20:01:31.276Z,21.37
2022-10-18T20:03:57.699Z,21.41
2022-10-18T20:06:24.060Z,21.37
2022-10-18T20:08:50.418Z,21.33
2022-10-18T20:11:16.790Z,21.36
2022-10-18T20:13:43.164Z,21.32
2022-10-18T20:16:09.520Z,21.33
2022-10-18T20:18:35.886Z,21.30
2022-10-18T20:21:02.234Z,21.29
2022-10-18T20:23:28.593Z,21.38
2022-10-18T20:25:54.959Z,21.25
2022-10-18T20:28:21.314Z,21.25
2022-10-18T20:30:47.676Z,21.25
2022-10-18T20:33:14.020Z,21.20
2022-10-18T20:35:40.453Z,21.17
2022-10-18T20:38:06.824Z,21.15
2022-10-18T20:40:33.180Z,21.09
2022-10-18T20:43:03.661Z,21.00
2022-10-18T20:45:30.403Z,21.05
2022-10-18T20:47:56.755Z,20.92
2022-10-18T20:50:23.101Z,20.89
2022-10-18T20:52:49.475Z,20.93
2022-10-18T20:55:15.819Z,20.99
2022-10-18T20:57:42.679Z,20.99
2022-10-18T21:00:09.215Z,20.97
2022-10-18T21:02:35.605Z,20.95
2022-10-18T21:05:01.957Z,20.98
2022-10-18T21:07:28.319Z,20.85
2022-10-18T21:09:54.659Z,20.83
2022-10-18T21:12:21.029Z,20.74
2022-10-18T21:14:47.400Z,20.72
2022-10-18T21:17:13.777Z,20.70
2022-10-18T21:19:40.165Z,20.67
2022-10-18T21:22:06.524Z,20.61
2022-10-18T21:24:32.881Z,20.60
2022-10-18T21:26:59.290Z,20.55
2022-10-18T21:29:25.672Z,20.51
2022-10-18T21:31:52.046Z,20.43
2022-10-18T21:34:18.413Z,20.43
2022-10-18T21:36:44.766Z,20.43
2022-10-18T21:39:11.169Z,20.42
2022-10-18T21:41:37.585Z,20.42
2022-10-18T21:44:05.700Z,20.36
2022-10-18T21:46:34.693Z,20.42
2022-10-18T21:49:01.054Z,20.41
2022-10-18T21:51:27.418Z,20.35
2022-10-18T21:53:53.798Z,20.32
2022-10-18T21:56:20.185Z,20.32
2022-10-18T21:58:46.533Z,20.27
2022-10-18T22:01:12.968Z,20.30
2022-10-18T22:03:39.368Z,20.31
2022-10-18T22:06:05.741Z,20.26
2022-10-18T22:08:32.116Z,20.31
2022-10-18T22:10:58.623Z,20.27
2022-10-18T22:13:27.312Z,20.32
2022-10-18T22:15:53.659Z,20.33
2022-10-18T22:18:20.033Z,20.39
2022-10-18T22:20:46.381Z,20.28
2022-10-18T22:23:12.743Z,20.36
2022-10-18T22:25:39.101Z,20.44
2022-10-18T22:28:05.474Z,20.29
2022-10-18T22:30:31.813Z,20.26
2022-10-18T22:32:58.159Z,20.23
2022-10-18T22:35:24.534Z,20.21
2022-10-18T22:37:50.890Z,20.10
2022-10-18T22:40:17.271Z,20.05
2022-10-18T22:42:43.639Z,19.95
2022-10-18T22:45:10.037Z,19.79
2022-10-18T22:47:36.816Z,19.78
2022-10-18T22:50:03.413Z,19.81
2022-10-18T22:52:29.949Z,19.81
2022-10-18T22:54:56.436Z,19.70
2022-10-18T22:57:22.799Z,19.71
2022-10-18T22:59:49.152Z,19.69
2022-10-18T23:02:15.528Z,19.72
2022-10-18T23:04:41.901Z,19.74
2022-10-18T23:07:08.264Z,19.71
2022-10-18T23:09:34.699Z,19.67
2022-10-18T23:12:01.126Z,19.67
2022-10-18T23:14:27.485Z,19.62
2022-10-18T23:16:53.858Z,19.58
2022-10-18T23:19:20.224Z,19.58
2022-10-18T23:21:46.577Z,19.60
2022-10-18T23:24:12.947Z,19.57
2022-10-18T23:26:39.302Z,19.54
2022-10-18T23:29:05.746Z,19.49
2022-10-18T23:31:32.148Z,19.49
2022-10-18T23:33:58.506Z,19.52
2022-10-18T23:36:24.844Z,19.49
2022-10-18T23:38:51.210Z,19.50
2022-10-18T23:41:17.585Z,19.51
2022-10-18T23:43:43.947Z,19.47
2022-10-18T23:46:10.326Z,19.47
2022-10-18T23:48:36.679Z,19.44
2022-10-18T23:51:03.052Z,19.47
2022-10-18T23:53:29.414Z,19.39
2022-10-18T23:55:55.800Z,19.41
2022-10-18T23:58:22.141Z,19.40
